Archiv-/Tagesdaten

--Timestamp---	Temp	Chill	HIndex	Humid	Dewpt	Wind	HiWind	WindDir	Rain	Barom	        Solar	ET	UV
--------------	----	-----	------	-----	-----	----	------	-------	----	-----	        -----	--	--
20080930 00:05	9.1	9.1	9.1	86	6.9	0	0	202	0.00	1015.276	0	0.000	0
20080930 00:10	9.1	9.1	9.1	87	7.0	0	3	202	0.00	1015.344	0	0.000	0
20080930 00:15	9.1	9.1	9.1	87	7.0	0	3	202	0.00	1015.344	0	0.000	0
20080930 00:20	9.1	9.1	9.1	87	7.0	3	6	247	0.00	1015.344	0	0.000	0
20080930 00:25	9.0	9.0	9.0	87	7.0	3	6	225	0.00	1015.344	0	0.000	0
20080930 00:30	8.9	8.9	8.9	86	6.7	2	6	225	0.00	1015.378	0	0.000	0
20080930 00:35	8.8	8.8	8.8	87	6.7	3	6	225	0.00	1015.378	0	0.000	0
20080930 00:40	8.7	8.7	8.7	87	6.6	2	6	225	0.00	1015.479	0	0.000	0
20080930 00:45	8.6	8.6	8.6	87	6.6	2	5	225	0.00	1015.547	0	0.000	0
20080930 00:50	8.7	8.7	8.7	88	6.8	2	8	247	0.00	1015.547	0	0.000	0
20080930 00:55	8.9	8.9	8.9	88	7.0	2	5	247	0.00	1015.513	0	0.000	0
20080930 01:00	8.9	8.9	8.9	88	7.1	0	5	247	0.00	1015.479	0	0.000	0
20080930 01:05	9.1	9.1	9.1	87	7.0	2	6	247	0.00	1015.378	0	0.000	0
20080930 01:10	9.1	9.1	9.1	87	7.0	2	3	247	0.00	1015.276	0	0.000	0
20080930 01:15	9.0	9.0	9.0	90	7.4	3	6	247	0.00	1015.344	0	0.000	0
20080930 01:20	8.9	8.9	8.9	87	6.8	3	8	202	0.00	1015.411	0	0.000	0
20080930 01:25	8.8	8.8	8.8	87	6.7	2	5	202	0.00	1015.344	0	0.000	0
20080930 01:30	8.7	8.7	8.7	87	6.7	3	6	202	0.00	1015.344	0	0.000	0
20080930 01:35	8.6	8.6	8.6	87	6.6	5	8	202	0.00	1015.344	0	0.000	0
20080930 01:40	8.6	8.6	8.6	88	6.7	5	8	202	0.00	1015.310	0	0.000	0
20080930 01:45	8.5	8.5	8.5	88	6.6	3	8	225	0.00	1015.344	0	0.000	0
20080930 01:50	8.4	8.4	8.4	88	6.6	3	8	225	0.00	1015.310	0	0.000	0
20080930 01:55	8.5	8.5	8.5	88	6.6	3	8	225	0.00	1015.310	0	0.000	0
20080930 02:00	8.6	8.6	8.6	89	6.8	2	6	225	0.00	1015.378	0	0.000	0
20080930 02:05	8.7	8.7	8.7	89	7.0	3	6	225	0.00	1015.276	0	0.000	0
20080930 02:10	8.8	8.8	8.8	89	7.1	3	6	247	0.00	1015.174	0	0.000	0
20080930 02:15	9.0	9.0	9.0	88	7.1	3	8	225	0.00	1015.107	0	0.000	0
20080930 02:20	9.1	9.1	9.1	88	7.2	3	8	225	0.00	1015.141	0	0.000	0
20080930 02:25	9.2	9.2	9.2	88	7.3	2	8	247	0.00	1015.107	0	0.000	0
20080930 02:30	9.3	9.3	9.3	87	7.2	3	10	247	0.00	1015.039	0	0.000	0
20080930 02:35	9.3	9.3	9.3	87	7.2	3	6	247	0.00	1015.005	0	0.000	0
20080930 02:40	9.3	9.3	9.3	87	7.2	3	6	247	0.00	1015.005	0	0.000	0
20080930 02:45	9.2	9.2	9.2	87	7.2	2	6	270	0.00	1015.107	0	0.000	0
20080930 02:50	9.2	9.2	9.2	87	7.1	2	6	225	0.00	1015.039	0	0.000	0
20080930 02:55	9.1	9.1	9.1	87	7.1	3	5	247	0.00	1015.073	0	0.000	0
20080930 03:00	9.1	9.1	9.1	87	7.0	3	8	247	0.00	1015.005	0	0.000	0
20080930 03:05	9.0	9.0	9.0	87	7.0	3	6	247	0.00	1014.937	0	0.000	0
20080930 03:10	8.9	8.9	8.9	87	6.8	3	6	247	0.00	1014.870	0	0.000	0
20080930 03:15	8.8	8.8	8.8	87	6.7	3	6	247	0.00	1014.937	0	0.000	0
20080930 03:20	8.7	8.7	8.7	87	6.7	3	8	247	0.00	1014.904	0	0.000	0
20080930 03:25	8.7	8.7	8.7	87	6.6	5	8	225	0.00	1014.904	0	0.000	0
20080930 03:30	8.6	8.6	8.6	88	6.7	3	8	225	0.00	1015.039	0	0.000	0
20080930 03:35	8.4	8.4	8.4	88	6.6	3	6	225	0.00	1014.870	0	0.000	0
20080930 03:40	8.3	8.3	8.3	88	6.5	3	8	180	0.00	1014.937	0	0.000	0
20080930 03:45	8.2	8.2	8.2	88	6.3	3	8	225	0.00	1015.039	0	0.000	0
20080930 03:50	8.1	8.1	8.1	88	6.2	2	6	225	0.00	1015.039	0	0.000	0
20080930 03:55	7.9	7.9	7.9	89	6.2	2	6	225	0.00	1015.107	0	0.000	0
20080930 04:00	7.8	7.8	7.8	89	6.1	3	6	225	0.00	1015.005	0	0.000	0
20080930 04:05	7.7	7.7	7.7	89	6.0	2	6	225	0.00	1015.141	0	0.000	0
20080930 04:10	7.7	7.7	7.7	89	6.0	2	6	225	0.00	1015.174	0	0.000	0
20080930 04:15	7.7	7.7	7.7	89	6.0	2	5	225	0.00	1015.174	0	0.000	0
20080930 04:20	7.7	7.7	7.7	90	6.1	2	5	225	0.00	1015.174	0	0.000	0
20080930 04:25	7.6	7.6	7.6	90	6.1	0	3	225	0.00	1015.141	0	0.000	0
20080930 04:30	7.7	7.7	7.7	90	6.1	2	5	225	0.00	1015.039	0	0.000	0
20080930 04:35	7.7	7.7	7.7	90	6.1	0	3	225	0.00	1015.039	0	0.000	0
20080930 04:40	7.7	7.7	7.7	90	6.2	2	5	225	0.00	1015.005	0	0.000	0
20080930 04:45	7.8	7.8	7.8	90	6.2	2	6	180	0.00	1014.937	0	0.000	0
20080930 04:50	7.8	7.8	7.8	90	6.2	2	6	180	0.00	1014.937	0	0.000	0
20080930 04:55	7.8	7.8	7.8	90	6.3	2	5	180	0.00	1014.971	0	0.000	0
20080930 05:00	7.9	7.9	7.9	90	6.4	3	8	202	0.00	1014.870	0	0.000	0
20080930 05:05	7.9	7.9	7.9	90	6.4	3	8	202	0.00	1014.904	0	0.000	0
20080930 05:10	7.9	7.9	7.9	90	6.4	2	6	202	0.00	1014.904	0	0.000	0
20080930 05:15	7.9	7.9	7.9	90	6.4	0	5	202	0.00	1014.870	0	0.000	0
20080930 05:20	7.9	7.9	7.9	90	6.4	0	3	202	0.00	1014.870	0	0.000	0
20080930 05:25	7.9	7.9	7.9	90	6.4	0	2	202	0.00	1014.870	0	0.000	0
20080930 05:30	7.9	7.9	7.9	90	6.4	0	2	202	0.00	1014.836	0	0.000	0
20080930 05:35	7.8	7.8	7.8	89	6.1	0	3	202	0.00	1014.870	0	0.000	0
20080930 05:40	7.8	7.8	7.8	90	6.2	0	2	202	0.00	1014.904	0	0.000	0
20080930 05:45	7.7	7.7	7.7	90	6.2	0	2	202	0.00	1014.836	0	0.000	0
20080930 05:50	7.7	7.7	7.7	90	6.2	0	5	202	0.00	1014.836	0	0.000	0
20080930 05:55	7.7	7.7	7.7	90	6.1	2	8	202	0.00	1014.836	0	0.000	0
20080930 06:00	7.7	7.7	7.7	90	6.1	2	6	202	0.00	1014.836	0	0.000	0
20080930 06:05	7.7	7.7	7.7	90	6.1	3	6	202	0.00	1015.141	0	0.000	0
20080930 06:10	7.6	7.6	7.6	90	6.1	3	6	202	0.00	1015.141	0	0.000	0
20080930 06:15	7.6	7.6	7.6	89	5.9	3	8	202	0.00	1015.174	0	0.000	0
20080930 06:20	7.5	7.5	7.5	90	6.0	3	6	202	0.00	1015.208	0	0.000	0
20080930 06:25	7.4	7.4	7.4	89	5.7	3	6	202	0.00	1015.208	0	0.000	0
20080930 06:30	7.4	7.4	7.4	89	5.7	3	6	202	0.00	1015.310	0	0.000	0
20080930 06:35	7.4	7.4	7.4	90	5.9	3	6	202	0.00	1015.242	0	0.000	0
20080930 06:40	7.4	7.4	7.4	90	5.9	3	6	202	0.00	1015.242	0	0.000	0
20080930 06:45	7.4	7.4	7.4	90	5.9	2	6	247	0.00	1015.141	0	0.000	0
20080930 06:50	7.4	7.4	7.4	90	5.9	2	5	247	0.00	1015.005	0	0.000	0
20080930 06:55	7.5	7.5	7.5	90	6.0	2	5	247	0.00	1015.039	0	0.000	0
20080930 07:00	7.6	7.6	7.6	90	6.0	2	5	247	0.00	1015.039	0	0.000	0
20080930 07:05	7.6	7.6	7.6	89	5.9	2	3	247	0.00	1015.073	0	0.000	0
20080930 07:10	7.7	7.7	7.7	89	6.0	2	3	247	0.00	1015.039	0	0.000	0
20080930 07:15	7.7	7.7	7.7	89	6.0	2	5	247	0.00	1015.073	0	0.000	0
20080930 07:20	7.7	7.7	7.7	89	6.0	2	3	247	0.00	1015.141	6	0.000	0
20080930 07:25	7.8	7.8	7.8	89	6.1	2	3	247	0.00	1015.208	8	0.000	0
20080930 07:30	7.8	7.8	7.8	89	6.1	0	3	247	0.00	1015.174	7	0.000	0
20080930 07:35	7.9	7.9	7.9	89	6.2	0	5	247	0.00	1015.174	9	0.000	0
20080930 07:40	8.1	8.1	8.1	88	6.2	0	3	247	0.00	1015.005	15	0.000	0
20080930 07:45	8.2	8.2	8.2	88	6.4	0	2	247	0.00	1015.005	24	0.000	0
20080930 07:50	8.4	8.4	8.4	87	6.4	2	6	247	0.00	1015.005	27	0.000	0
20080930 07:55	8.4	8.4	8.4	87	6.4	2	5	247	0.00	1015.005	33	0.000	0
20080930 08:00	8.5	8.5	8.5	87	6.5	2	5	247	0.00	1014.937	40	0.000	0
20080930 08:05	8.6	8.6	8.6	87	6.5	5	8	180	0.00	1015.073	50	0.000	0
20080930 08:10	8.6	8.6	8.6	87	6.5	2	8	202	0.00	1015.039	45	0.000	0
20080930 08:15	8.6	8.6	8.6	87	6.6	3	6	225	0.00	1015.073	44	0.000	0
20080930 08:20	8.6	8.6	8.6	87	6.6	3	8	225	0.00	1014.971	50	0.000	0
20080930 08:25	8.6	8.6	8.6	87	6.6	3	6	202	0.00	1014.937	49	0.000	0
20080930 08:30	8.7	8.7	8.7	87	6.6	3	8	202	0.00	1014.904	45	0.000	0
20080930 08:35	8.7	8.7	8.7	87	6.6	5	8	202	0.00	1014.904	53	0.000	0
20080930 08:40	8.7	8.7	8.7	87	6.7	3	8	202	0.00	1014.904	61	0.000	0
20080930 08:45	8.8	8.8	8.8	87	6.8	0	5	202	0.00	1014.937	99	0.000	0
20080930 08:50	9.0	9.0	9.0	87	7.0	2	6	247	0.00	1014.904	95	0.000	0
20080930 08:55	9.2	9.2	9.2	87	7.2	2	5	247	0.00	1014.836	76	0.000	0
20080930 09:00	9.4	9.4	9.4	86	7.2	2	5	247	0.00	1014.734	66	0.020	0
20080930 09:05	9.6	9.6	9.6	86	7.3	0	6	247	0.00	1014.768	77	0.000	0
20080930 09:10	9.8	9.8	9.8	85	7.4	3	8	247	0.00	1014.734	90	0.000	0
20080930 09:15	10.1	10.1	10.1	84	7.5	2	6	247	0.00	1014.734	97	0.000	1
20080930 09:20	10.3	10.3	10.3	83	7.5	2	8	247	0.00	1014.768	98	0.000	1
20080930 09:25	10.5	10.5	10.5	82	7.6	2	6	270	0.00	1014.768	113	0.000	1
20080930 09:30	10.7	10.7	10.7	81	7.6	3	10	247	0.00	1014.802	119	0.000	1
20080930 09:35	10.9	10.9	10.9	81	7.8	3	10	270	0.00	1014.734	117	0.000	1
20080930 09:40	11.1	11.1	11.1	80	7.7	5	11	247	0.00	1014.666	116	0.000	1
20080930 09:45	11.2	11.2	11.2	79	7.7	3	10	270	0.00	1014.633	124	0.000	1
20080930 09:50	11.3	11.3	11.3	80	8.0	2	8	247	0.00	1014.565	123	0.000	1
20080930 09:55	11.4	11.4	11.4	79	7.9	5	11	247	0.00	1014.497	125	0.000	1
20080930 10:00	11.6	11.6	11.6	78	7.9	3	11	247	0.00	1014.429	135	0.040	1
20080930 10:05	11.8	11.8	11.8	77	7.9	3	6	247	0.00	1014.396	127	0.000	1
20080930 10:10	11.8	11.8	11.8	78	8.1	3	8	247	0.00	1014.429	137	0.000	1
20080930 10:15	12.0	12.0	12.0	75	7.7	5	14	270	0.00	1014.294	143	0.000	1
20080930 10:20	12.1	12.1	12.1	75	7.8	5	14	247	0.00	1014.226	145	0.000	1
20080930 10:25	12.2	12.2	12.2	75	7.9	5	10	247	0.00	1014.328	146	0.000	1
20080930 10:30	12.4	12.4	12.4	74	7.9	5	11	247	0.00	1014.328	145	0.000	1
20080930 10:35	12.5	12.5	12.5	73	7.8	6	14	247	0.00	1014.294	171	0.000	2
20080930 10:40	12.6	12.6	12.6	73	7.9	5	10	247	0.00	1014.192	185	0.000	2
20080930 10:45	12.7	12.7	12.7	72	7.7	5	10	247	0.00	1014.057	171	0.000	2
20080930 10:50	12.8	12.8	12.8	72	7.9	3	10	247	0.00	1014.023	172	0.000	2
20080930 10:55	12.9	12.9	12.9	71	7.8	3	13	247	0.00	1013.955	173	0.000	2
20080930 11:00	13.2	13.2	13.2	70	7.8	5	16	247	0.00	1013.888	187	0.080	2
20080930 11:05	13.2	13.2	13.2	70	7.9	5	16	270	0.00	1013.888	202	0.000	2
20080930 11:10	13.3	13.3	13.3	70	8.0	6	11	270	0.00	1013.888	201	0.000	2
20080930 11:15	13.5	13.5	13.5	69	7.9	6	14	247	0.00	1013.888	185	0.000	2
20080930 11:20	13.6	13.6	13.6	69	8.0	5	11	247	0.00	1013.888	185	0.000	2
20080930 11:25	13.6	13.6	13.6	68	7.8	8	16	270	0.00	1013.854	225	0.000	2
20080930 11:30	13.7	13.7	13.7	67	7.7	8	24	270	0.00	1013.718	178	0.000	1
20080930 11:35	13.8	13.8	13.8	67	7.8	6	14	247	0.00	1013.651	391	0.000	2
20080930 11:40	14.2	14.2	14.2	67	8.2	6	16	247	0.00	1013.583	565	0.000	2
20080930 11:45	14.5	14.5	14.5	65	8.0	5	14	292	0.00	1013.481	406	0.000	2
20080930 11:50	14.6	14.6	14.6	65	8.0	5	18	247	0.00	1013.380	304	0.000	2
20080930 11:55	14.4	14.4	14.4	64	7.7	8	18	247	0.00	1013.278	123	0.000	1
20080930 12:00	14.2	14.2	14.2	66	7.9	6	16	292	0.00	1013.210	59	0.120	0
20080930 12:05	13.8	13.8	13.8	65	7.4	10	21	270	0.00	1013.312	42	0.000	0
20080930 12:10	13.5	13.5	13.5	68	7.7	6	14	292	0.00	1013.312	42	0.000	0
20080930 12:15	13.3	13.3	13.3	69	7.8	8	14	270	0.00	1013.244	31	0.000	0
20080930 12:20	13.1	13.1	13.1	69	7.5	6	14	292	0.00	1013.210	31	0.000	0
20080930 12:25	12.9	12.9	12.9	69	7.4	5	13	270	0.00	1013.346	59	0.000	0
20080930 12:30	12.9	12.9	12.9	68	7.2	8	16	270	0.00	1013.380	83	0.000	1
20080930 12:35	13.0	13.0	13.0	70	7.7	5	11	270	0.00	1013.346	156	0.000	2
20080930 12:40	13.2	13.2	13.2	68	7.4	5	10	292	0.00	1013.177	301	0.000	3
20080930 12:45	13.6	13.6	13.6	69	8.0	2	8	247	0.00	1013.041	295	0.000	3
20080930 12:50	13.9	13.9	13.9	68	8.1	5	6	247	0.00	1013.041	321	0.000	2
20080930 12:55	14.2	14.2	14.2	66	8.0	5	8	247	0.00	1012.872	268	0.000	2
20080930 13:00	14.3	14.3	14.3	66	8.1	6	16	247	0.00	1012.804	263	0.080	2
20080930 13:05	14.3	14.3	14.3	63	7.3	10	21	247	0.00	1012.838	162	0.000	1
20080930 13:10	14.2	14.2	14.2	64	7.5	6	14	270	0.00	1012.736	225	0.000	2
20080930 13:15	14.3	14.3	14.3	62	7.1	10	19	270	0.00	1012.635	169	0.000	1
20080930 13:20	14.2	14.2	14.2	62	7.0	8	19	270	0.00	1012.635	141	0.000	1
20080930 13:25	14.5	14.5	14.5	62	7.3	8	19	247	0.00	1012.567	476	0.000	3
20080930 13:30	15.0	15.0	15.0	57	6.5	10	24	270	0.00	1012.330	474	0.000	3
20080930 13:35	15.2	15.2	15.2	56	6.5	13	24	270	0.00	1012.465	333	0.000	2
20080930 13:40	15.2	15.2	15.2	54	6.0	13	35	270	0.00	1012.262	321	0.000	2
20080930 13:45	15.0	15.0	15.0	54	5.8	14	35	247	0.00	1012.194	286	0.000	2
20080930 13:50	15.0	15.0	15.0	54	5.8	16	31	270	0.00	1012.228	252	0.000	2
20080930 13:55	14.8	14.8	14.8	55	5.9	14	27	247	0.00	1012.262	224	0.000	2
20080930 14:00	14.7	14.7	14.7	56	6.0	11	32	270	0.00	1012.228	192	0.160	1
20080930 14:05	14.7	14.7	14.7	56	6.0	11	26	247	0.00	1012.262	173	0.000	1
20080930 14:10	14.6	14.6	14.6	56	5.9	11	26	247	0.00	1012.262	153	0.000	1
20080930 14:15	14.5	14.5	14.5	57	6.1	13	32	270	0.00	1012.228	149	0.000	1
20080930 14:20	14.4	14.4	14.4	54	5.2	13	27	270	0.00	1012.127	138	0.000	1
20080930 14:25	14.3	14.3	14.3	55	5.4	11	19	247	0.00	1012.127	133	0.000	1
20080930 14:30	14.3	14.3	14.3	56	5.6	13	24	270	0.00	1012.093	131	0.000	1
20080930 14:35	14.2	14.2	14.2	55	5.3	13	26	270	0.00	1012.127	129	0.000	1
20080930 14:40	14.1	14.1	14.1	57	5.7	11	19	270	0.00	1012.262	127	0.000	1
20080930 14:45	14.1	14.1	14.1	56	5.4	13	24	247	0.00	1012.194	124	0.000	1
20080930 14:50	14.0	14.0	14.0	55	5.1	13	26	270	0.00	1012.127	123	0.000	1
20080930 14:55	13.9	13.9	13.9	57	5.6	10	19	270	0.00	1012.194	134	0.000	1
20080930 15:00	13.9	13.9	13.9	57	5.6	10	24	270	0.00	1012.127	144	0.100	1
20080930 15:05	13.9	13.9	13.9	56	5.3	11	27	270	0.00	1012.194	143	0.000	1
20080930 15:10	13.9	13.9	13.9	56	5.3	10	21	270	0.00	1012.262	160	0.000	1
20080930 15:15	13.9	13.9	13.9	57	5.6	14	27	270	0.00	1012.093	168	0.000	1
20080930 15:20	13.9	13.9	13.9	58	5.8	11	19	270	0.00	1012.127	153	0.000	1
20080930 15:25	13.9	13.9	13.9	57	5.6	11	23	270	0.00	1012.025	161	0.000	1
20080930 15:30	14.0	14.0	14.0	57	5.6	11	27	270	0.00	1011.991	181	0.000	1
20080930 15:35	14.0	14.0	14.0	57	5.6	16	32	247	0.00	1011.991	156	0.000	1
20080930 15:40	13.9	13.9	13.9	57	5.6	11	27	270	0.00	1011.957	109	0.000	1
20080930 15:45	13.8	13.8	13.8	57	5.4	11	26	247	0.00	1011.890	91	0.000	0
20080930 15:50	13.7	13.7	13.7	59	5.9	8	18	247	0.00	1011.856	109	0.000	1
20080930 15:55	13.7	13.7	13.7	58	5.6	10	21	247	0.00	1011.822	99	0.000	1
20080930 16:00	13.6	13.6	13.6	57	5.3	10	21	247	0.00	1011.788	83	0.100	0
20080930 16:05	13.6	13.6	13.6	57	5.2	11	29	247	0.00	1011.686	115	0.000	1
20080930 16:10	13.6	13.6	13.6	58	5.4	8	19	270	0.00	1011.653	111	0.000	1
20080930 16:15	13.6	13.6	13.6	58	5.4	8	21	270	0.00	1011.720	87	0.000	0
20080930 16:20	13.5	13.5	13.5	61	6.1	8	19	247	0.00	1011.720	94	0.000	0
20080930 16:25	13.4	13.4	13.4	59	5.6	10	19	270	0.00	1011.754	110	0.000	0
20080930 16:30	13.4	13.4	13.4	59	5.6	10	21	247	0.00	1011.686	124	0.000	1
20080930 16:35	13.4	13.4	13.4	59	5.6	10	19	270	0.00	1011.686	116	0.000	1
20080930 16:40	13.4	13.4	13.4	59	5.6	10	18	247	0.00	1011.653	135	0.000	1
20080930 16:45	13.5	13.5	13.5	59	5.6	10	19	270	0.00	1011.483	113	0.000	1
20080930 16:50	13.4	13.4	13.4	59	5.6	8	18	247	0.00	1011.416	89	0.000	0
20080930 16:55	13.3	13.3	13.3	60	5.7	8	18	270	0.00	1011.382	72	0.000	0
20080930 17:00	13.3	13.3	13.3	61	5.9	5	14	247	0.00	1011.382	59	0.080	0
20080930 17:05	13.2	13.2	13.2	62	6.1	6	14	270	0.00	1011.483	51	0.000	0
20080930 17:10	13.1	13.1	13.1	63	6.2	6	14	247	0.00	1011.348	42	0.000	0
20080930 17:15	13.1	13.1	13.1	63	6.2	5	11	247	0.00	1011.280	40	0.000	0
20080930 17:20	12.9	12.9	12.9	63	6.1	5	10	247	0.00	1011.314	42	0.000	0
20080930 17:25	12.9	12.9	12.9	62	5.8	6	21	270	0.00	1011.212	47	0.000	0
20080930 17:30	12.9	12.9	12.9	62	5.8	8	19	270	0.00	1011.145	41	0.000	0
20080930 17:35	12.9	12.9	12.9	62	5.8	6	16	247	0.00	1011.145	33	0.000	0
20080930 17:40	12.9	12.9	12.9	62	5.8	6	18	247	0.00	1011.111	28	0.000	0
20080930 17:45	12.8	12.8	12.8	61	5.5	6	11	270	0.00	1011.145	29	0.000	0
20080930 17:50	12.8	12.8	12.8	62	5.7	5	11	247	0.00	1011.111	22	0.000	0
20080930 17:55	12.7	12.7	12.7	62	5.6	6	10	247	0.00	1011.111	23	0.000	0
20080930 18:00	12.7	12.7	12.7	62	5.6	6	11	247	0.00	1011.111	26	0.040	0
20080930 18:05	12.7	12.7	12.7	63	5.8	6	14	247	0.00	1011.077	20	0.000	0
20080930 18:10	12.6	12.6	12.6	62	5.5	6	14	247	0.00	1010.975	15	0.000	0
20080930 18:15	12.6	12.6	12.6	62	5.5	8	16	247	0.00	1010.874	13	0.000	0
20080930 18:20	12.6	12.6	12.6	63	5.8	6	14	247	0.00	1010.840	12	0.000	0
20080930 18:25	12.5	12.5	12.5	65	6.1	8	19	247	0.00	1010.840	9	0.000	0
20080930 18:30	12.4	12.4	12.4	65	6.0	6	18	247	0.00	1010.840	7	0.000	0
20080930 18:35	12.3	12.3	12.3	66	6.2	6	14	247	0.00	1010.772	5	0.000	0
20080930 18:40	12.2	12.2	12.2	66	6.1	5	10	247	0.00	1010.806	0	0.000	0
20080930 18:45	12.2	12.2	12.2	66	6.0	5	10	270	0.00	1010.908	0	0.000	0
20080930 18:50	12.1	12.1	12.1	67	6.1	3	6	270	0.00	1011.009	0	0.000	0
20080930 18:55	12.0	12.0	12.0	68	6.3	5	11	247	0.00	1010.975	0	0.000	0
20080930 19:00	11.9	11.9	11.9	68	6.2	3	6	247	0.00	1010.941	0	0.020	0
20080930 19:05	11.9	11.9	11.9	68	6.2	3	8	247	0.00	1010.941	0	0.000	0
20080930 19:10	11.8	11.8	11.8	69	6.3	3	6	247	0.00	1010.908	0	0.000	0
20080930 19:15	11.8	11.8	11.8	68	6.1	5	18	247	0.00	1010.874	0	0.000	0
20080930 19:20	11.9	11.9	11.9	68	6.2	5	13	247	0.00	1010.806	0	0.000	0
20080930 19:25	11.9	11.9	11.9	69	6.4	3	10	247	0.00	1010.772	0	0.000	0
20080930 19:30	11.8	11.8	11.8	70	6.5	5	8	247	0.00	1010.806	0	0.000	0
20080930 19:35	11.8	11.8	11.8	69	6.3	6	19	247	0.00	1010.738	0	0.000	0
20080930 19:40	11.8	11.8	11.8	70	6.5	3	11	270	0.00	1010.772	0	0.000	0
20080930 19:45	11.8	11.8	11.8	71	6.7	3	8	247	0.00	1010.772	0	0.000	0
20080930 19:50	11.7	11.7	11.7	72	6.8	5	19	225	0.00	1010.806	0	0.000	0
20080930 19:55	11.6	11.6	11.6	74	7.1	3	8	247	0.00	1010.806	0	0.000	0
20080930 20:00	11.5	11.5	11.5	75	7.2	3	10	247	0.00	1010.772	0	0.020	0
20080930 20:05	11.3	11.3	11.3	76	7.3	3	10	247	0.20	1010.569	0	0.000	0
20080930 20:10	11.2	11.2	11.2	78	7.5	3	10	225	0.00	1010.806	0	0.000	0
20080930 20:15	10.9	10.9	10.9	80	7.6	2	5	180	0.00	1010.806	0	0.000	0
20080930 20:20	10.8	10.8	10.8	82	7.8	3	6	225	0.00	1010.874	0	0.000	0
20080930 20:25	10.6	10.6	10.6	83	7.8	3	6	225	0.20	1010.840	0	0.000	0
20080930 20:30	10.5	10.5	10.5	84	7.9	2	6	225	0.00	1010.806	0	0.000	0
20080930 20:35	10.3	10.3	10.3	85	7.9	3	8	247	0.00	1010.738	0	0.000	0
20080930 20:40	10.3	10.3	10.3	85	7.9	3	10	225	0.00	1010.704	0	0.000	0
20080930 20:45	10.2	10.2	10.2	86	7.9	3	10	202	0.00	1010.772	0	0.000	0
20080930 20:50	10.1	10.1	10.1	86	7.9	2	6	247	0.00	1010.704	0	0.000	0
20080930 20:55	10.2	10.2	10.2	84	7.6	6	14	247	0.00	1010.637	0	0.000	0
20080930 21:00	10.3	10.3	10.3	83	7.5	6	14	247	0.20	1010.535	0	0.020	0
20080930 21:05	10.3	10.3	10.3	83	7.6	5	14	270	0.00	1010.298	0	0.000	0
20080930 21:10	10.3	10.3	10.3	82	7.4	6	14	247	0.00	1010.264	0	0.000	0
20080930 21:15	10.3	10.3	10.3	82	7.4	8	16	270	0.00	1010.230	0	0.000	0
20080930 21:20	10.3	10.3	10.3	83	7.6	5	10	247	0.00	1010.230	0	0.000	0
20080930 21:25	10.3	10.3	10.3	84	7.7	5	10	270	0.00	1010.298	0	0.000	0
20080930 21:30	10.2	10.2	10.2	84	7.6	5	8	270	0.00	1010.366	0	0.000	0
20080930 21:35	10.2	10.2	10.2	84	7.6	5	10	247	0.00	1010.332	0	0.000	0
20080930 21:40	10.1	10.1	10.1	85	7.7	3	6	247	0.00	1010.264	0	0.000	0
20080930 21:45	10.1	10.1	10.1	85	7.7	6	11	270	0.00	1010.298	0	0.000	0
20080930 21:50	10.1	10.1	10.1	84	7.5	6	14	247	0.00	1010.264	0	0.000	0
20080930 21:55	10.2	10.2	10.2	84	7.6	8	19	247	0.00	1010.264	0	0.000	0
20080930 22:00	10.2	10.2	10.2	84	7.6	6	11	247	0.00	1010.095	0	0.020	0
20080930 22:05	10.2	10.2	10.2	85	7.8	8	16	247	0.00	1009.790	0	0.000	0
20080930 22:10	10.2	10.2	10.2	84	7.6	8	21	270	0.20	1009.824	0	0.000	0
20080930 22:15	10.3	10.3	10.3	83	7.5	13	24	247	0.00	1009.790	0	0.000	0
20080930 22:20	10.3	10.3	10.3	82	7.4	11	24	247	0.00	1009.824	0	0.000	0
20080930 22:25	10.4	10.4	10.4	82	7.5	14	29	247	0.00	1009.790	0	0.000	0
20080930 22:30	10.5	10.5	10.5	82	7.6	11	24	247	0.00	1009.688	0	0.000	0
20080930 22:35	10.4	10.4	10.4	82	7.4	11	23	247	0.00	1009.688	0	0.000	0
20080930 22:40	10.4	10.4	10.4	82	7.5	14	24	247	0.00	1009.756	0	0.000	0
20080930 22:45	10.4	10.4	10.4	82	7.5	13	31	247	0.00	1009.621	0	0.000	0
20080930 22:50	10.5	10.5	10.5	81	7.4	16	29	247	0.00	1009.688	0	0.000	0
20080930 22:55	10.6	10.6	10.6	81	7.4	14	24	247	0.00	1009.655	0	0.000	0
20080930 23:00	10.6	10.6	10.6	81	7.4	18	27	247	0.00	1009.553	0	0.020	0
20080930 23:05	10.6	10.6	10.6	81	7.4	13	26	247	0.00	1009.384	0	0.000	0
20080930 23:10	10.6	10.6	10.6	81	7.4	14	29	247	0.00	1009.350	0	0.000	0
20080930 23:15	10.6	10.6	10.6	80	7.2	16	32	247	0.00	1009.248	0	0.000	0
20080930 23:20	10.6	10.6	10.6	80	7.3	14	32	247	0.00	1009.384	0	0.000	0
20080930 23:25	10.6	10.6	10.6	80	7.2	16	31	247	0.00	1009.418	0	0.000	0
20080930 23:30	10.6	10.6	10.6	81	7.4	14	29	247	0.00	1009.418	0	0.000	0
20080930 23:35	10.5	10.5	10.5	81	7.4	13	24	247	0.00	1009.350	0	0.000	0
20080930 23:40	10.4	10.4	10.4	81	7.3	11	23	247	0.00	1009.350	0	0.000	0
20080930 23:45	10.4	10.4	10.4	81	7.3	11	26	247	0.00	1009.282	0	0.000	0
20080930 23:50	10.4	10.4	10.4	82	7.4	13	23	247	0.00	1009.248	0	0.000	0
20080930 23:55	10.4	10.4	10.4	82	7.4	11	23	270	0.00	1009.316	0	0.000	0
20080930 24:00	10.3	10.3	10.3	82	7.4	11	27	247	0.00	1009.282	0	0.020	0



Please note the license to use and transfer of this data:
http://creativecommons.org/licenses/by-nc-sa/3.0/deed.en

Bitte beachten sie die Lizenz zur Verwertung und Weitergabe der Daten:
http://creativecommons.org/licenses/by-nc-sa/3.0/deed.de

zurück zur Übersicht der Archivdaten (Monats und Tagesdaten)

Cookies helfen bei der Bereitstellung von Inhalten. Durch die Nutzung dieser Seiten erklärst du dich damit einverstanden, dass Cookies auf deinem Rechner gespeichert werden. Weitere Information